sensor_id;sensor_type;location;lat;lon;timestamp;P1;durP1;ratioP1;P2;durP2;ratioP2
27357;SDS011;14831;50.474;7.616;2023-04-01T00:00:35;0.8;;;0.8;;
27357;SDS011;14831;50.474;7.616;2023-04-01T00:05:35;0.8;;;0.8;;
27357;SDS011;14831;50.474;7.616;2023-04-01T00:10:35;0.8;;;0.8;;
27357;SDS011;14831;50.474;7.616;2023-04-01T00:15:36;0.8;;;0.8;;
27357;SDS011;14831;50.474;7.616;2023-04-01T00:20:36;0.8;;;0.8;;
27357;SDS011;14831;50.474;7.616;2023-04-01T00:25:35;0.6;;;0.6;;
27357;SDS011;14831;50.474;7.616;2023-04-01T00:30:35;0.6;;;0.6;;
27357;SDS011;14831;50.474;7.616;2023-04-01T00:35:35;0.6;;;0.6;;
27357;SDS011;14831;50.474;7.616;2023-04-01T00:40:37;0.6;;;0.6;;
27357;SDS011;14831;50.474;7.616;2023-04-01T00:45:37;0.6;;;0.6;;
27357;SDS011;14831;50.474;7.616;2023-04-01T00:50:36;0.6;;;0.6;;
27357;SDS011;14831;50.474;7.616;2023-04-01T00:55:37;1.0;;;0.7;;
27357;SDS011;14831;50.474;7.616;2023-04-01T01:00:36;1.0;;;0.7;;
27357;SDS011;14831;50.474;7.616;2023-04-01T01:05:46;1.0;;;0.7;;
27357;SDS011;14831;50.474;7.616;2023-04-01T01:10:38;1.0;;;0.7;;
27357;SDS011;14831;50.474;7.616;2023-04-01T01:15:39;1.0;;;0.7;;
27357;SDS011;14831;50.474;7.616;2023-04-01T01:25:41;0.8;;;0.5;;
27357;SDS011;14831;50.474;7.616;2023-04-01T01:30:39;0.8;;;0.5;;
27357;SDS011;14831;50.474;7.616;2023-04-01T01:35:38;0.8;;;0.5;;
27357;SDS011;14831;50.474;7.616;2023-04-01T01:42:45;0.8;;;0.5;;
27357;SDS011;14831;50.474;7.616;2023-04-01T01:45:38;0.8;;;0.5;;
27357;SDS011;14831;50.474;7.616;2023-04-01T01:50:36;0.8;;;0.5;;
27357;SDS011;14831;50.474;7.616;2023-04-01T01:55:36;0.8;;;0.5;;
27357;SDS011;14831;50.474;7.616;2023-04-01T02:00:36;0.8;;;0.5;;
27357;SDS011;14831;50.474;7.616;2023-04-01T02:05:35;0.8;;;0.5;;
27357;SDS011;14831;50.474;7.616;2023-04-01T02:10:39;0.8;;;0.5;;
27357;SDS011;14831;50.474;7.616;2023-04-01T02:15:40;0.8;;;0.5;;
27357;SDS011;14831;50.474;7.616;2023-04-01T02:20:39;0.8;;;0.5;;
27357;SDS011;14831;50.474;7.616;2023-04-01T02:25:36;0.5;;;0.5;;
27357;SDS011;14831;50.474;7.616;2023-04-01T02:30:36;0.5;;;0.5;;
27357;SDS011;14831;50.474;7.616;2023-04-01T02:35:36;0.5;;;0.5;;
27357;SDS011;14831;50.474;7.616;2023-04-01T02:40:46;0.5;;;0.5;;
27357;SDS011;14831;50.474;7.616;2023-04-01T02:45:35;0.5;;;0.5;;
27357;SDS011;14831;50.474;7.616;2023-04-01T02:50:35;0.5;;;0.5;;
27357;SDS011;14831;50.474;7.616;2023-04-01T02:55:35;0.5;;;0.5;;
27357;SDS011;14831;50.474;7.616;2023-04-01T03:00:35;0.5;;;0.5;;
27357;SDS011;14831;50.474;7.616;2023-04-01T03:05:35;0.5;;;0.5;;
27357;SDS011;14831;50.474;7.616;2023-04-01T03:10:35;0.5;;;0.5;;
27357;SDS011;14831;50.474;7.616;2023-04-01T03:15:35;0.5;;;0.5;;
27357;SDS011;14831;50.474;7.616;2023-04-01T03:20:35;0.5;;;0.5;;
27357;SDS011;14831;50.474;7.616;2023-04-01T03:25:35;0.5;;;0.5;;
27357;SDS011;14831;50.474;7.616;2023-04-01T03:30:35;0.5;;;0.5;;
27357;SDS011;14831;50.474;7.616;2023-04-01T03:35:35;0.5;;;0.5;;
27357;SDS011;14831;50.474;7.616;2023-04-01T03:40:35;0.5;;;0.5;;
27357;SDS011;14831;50.474;7.616;2023-04-01T03:45:35;0.5;;;0.5;;
27357;SDS011;14831;50.474;7.616;2023-04-01T03:50:35;0.5;;;0.5;;
27357;SDS011;14831;50.474;7.616;2023-04-01T03:55:36;0.4;;;0.4;;
27357;SDS011;14831;50.474;7.616;2023-04-01T04:00:35;0.4;;;0.4;;
27357;SDS011;14831;50.474;7.616;2023-04-01T04:05:35;0.4;;;0.4;;
27357;SDS011;14831;50.474;7.616;2023-04-01T04:10:36;0.4;;;0.4;;
27357;SDS011;14831;50.474;7.616;2023-04-01T04:15:35;0.4;;;0.4;;
27357;SDS011;14831;50.474;7.616;2023-04-01T04:20:35;0.4;;;0.4;;
27357;SDS011;14831;50.474;7.616;2023-04-01T04:25:35;0.3;;;0.3;;
27357;SDS011;14831;50.474;7.616;2023-04-01T04:30:35;0.3;;;0.3;;
27357;SDS011;14831;50.474;7.616;2023-04-01T04:35:35;0.3;;;0.3;;
27357;SDS011;14831;50.474;7.616;2023-04-01T04:40:36;0.3;;;0.3;;
27357;SDS011;14831;50.474;7.616;2023-04-01T04:45:35;0.3;;;0.3;;
27357;SDS011;14831;50.474;7.616;2023-04-01T04:50:35;0.3;;;0.3;;
27357;SDS011;14831;50.474;7.616;2023-04-01T04:55:35;0.5;;;0.5;;
27357;SDS011;14831;50.474;7.616;2023-04-01T05:00:35;0.5;;;0.5;;
27357;SDS011;14831;50.474;7.616;2023-04-01T05:05:35;0.5;;;0.5;;
27357;SDS011;14831;50.474;7.616;2023-04-01T05:10:35;0.5;;;0.5;;
27357;SDS011;14831;50.474;7.616;2023-04-01T05:15:36;0.5;;;0.5;;
27357;SDS011;14831;50.474;7.616;2023-04-01T05:20:35;0.5;;;0.5;;
27357;SDS011;14831;50.474;7.616;2023-04-01T05:25:37;0.3;;;0.3;;
27357;SDS011;14831;50.474;7.616;2023-04-01T05:30:35;0.3;;;0.3;;
27357;SDS011;14831;50.474;7.616;2023-04-01T05:35:35;0.3;;;0.3;;
27357;SDS011;14831;50.474;7.616;2023-04-01T05:40:36;0.3;;;0.3;;
27357;SDS011;14831;50.474;7.616;2023-04-01T05:45:35;0.3;;;0.3;;
27357;SDS011;14831;50.474;7.616;2023-04-01T05:50:35;0.3;;;0.3;;
27357;SDS011;14831;50.474;7.616;2023-04-01T05:55:35;0.4;;;0.4;;
27357;SDS011;14831;50.474;7.616;2023-04-01T06:00:35;0.4;;;0.4;;
27357;SDS011;14831;50.474;7.616;2023-04-01T06:05:39;0.4;;;0.4;;
27357;SDS011;14831;50.474;7.616;2023-04-01T06:10:43;0.4;;;0.4;;
27357;SDS011;14831;50.474;7.616;2023-04-01T06:15:39;0.4;;;0.4;;
27357;SDS011;14831;50.474;7.616;2023-04-01T06:20:42;0.4;;;0.4;;
27357;SDS011;14831;50.474;7.616;2023-04-01T06:25:43;0.3;;;0.3;;
27357;SDS011;14831;50.474;7.616;2023-04-01T06:30:41;0.3;;;0.3;;
27357;SDS011;14831;50.474;7.616;2023-04-01T06:35:44;0.3;;;0.3;;
27357;SDS011;14831;50.474;7.616;2023-04-01T06:40:46;0.3;;;0.3;;
27357;SDS011;14831;50.474;7.616;2023-04-01T06:45:41;0.3;;;0.3;;
27357;SDS011;14831;50.474;7.616;2023-04-01T06:50:40;0.3;;;0.3;;
27357;SDS011;14831;50.474;7.616;2023-04-01T06:55:38;0.2;;;0.2;;
27357;SDS011;14831;50.474;7.616;2023-04-01T07:00:39;0.2;;;0.2;;
27357;SDS011;14831;50.474;7.616;2023-04-01T07:05:35;0.2;;;0.2;;
27357;SDS011;14831;50.474;7.616;2023-04-01T07:10:42;0.2;;;0.2;;
27357;SDS011;14831;50.474;7.616;2023-04-01T07:15:38;0.2;;;0.2;;
27357;SDS011;14831;50.474;7.616;2023-04-01T07:20:37;0.2;;;0.2;;
27357;SDS011;14831;50.474;7.616;2023-04-01T07:25:38;0.6;;;0.3;;
27357;SDS011;14831;50.474;7.616;2023-04-01T07:30:49;0.6;;;0.3;;
27357;SDS011;14831;50.474;7.616;2023-04-01T07:35:39;0.6;;;0.3;;
27357;SDS011;14831;50.474;7.616;2023-04-01T07:40:40;0.6;;;0.3;;
27357;SDS011;14831;50.474;7.616;2023-04-01T07:45:39;0.6;;;0.3;;
27357;SDS011;14831;50.474;7.616;2023-04-01T07:50:41;0.6;;;0.3;;
27357;SDS011;14831;50.474;7.616;2023-04-01T07:55:42;0.5;;;0.3;;
27357;SDS011;14831;50.474;7.616;2023-04-01T08:00:43;0.5;;;0.3;;
27357;SDS011;14831;50.474;7.616;2023-04-01T08:05:41;0.5;;;0.3;;
27357;SDS011;14831;50.474;7.616;2023-04-01T08:10:40;0.5;;;0.3;;
27357;SDS011;14831;50.474;7.616;2023-04-01T08:15:39;0.5;;;0.3;;
27357;SDS011;14831;50.474;7.616;2023-04-01T08:20:41;0.5;;;0.3;;
27357;SDS011;14831;50.474;7.616;2023-04-01T08:25:37;1.8;;;0.6;;
27357;SDS011;14831;50.474;7.616;2023-04-01T08:30:39;1.8;;;0.6;;
27357;SDS011;14831;50.474;7.616;2023-04-01T08:35:39;1.8;;;0.6;;
27357;SDS011;14831;50.474;7.616;2023-04-01T08:42:49;1.8;;;0.6;;
27357;SDS011;14831;50.474;7.616;2023-04-01T08:45:59;1.8;;;0.6;;
27357;SDS011;14831;50.474;7.616;2023-04-01T08:50:48;1.8;;;0.6;;
27357;SDS011;14831;50.474;7.616;2023-04-01T08:55:44;1.3;;;0.3;;
27357;SDS011;14831;50.474;7.616;2023-04-01T09:00:39;1.3;;;0.3;;
27357;SDS011;14831;50.474;7.616;2023-04-01T09:05:41;1.3;;;0.3;;
27357;SDS011;14831;50.474;7.616;2023-04-01T09:10:47;1.3;;;0.3;;
27357;SDS011;14831;50.474;7.616;2023-04-01T09:15:50;1.3;;;0.3;;
27357;SDS011;14831;50.474;7.616;2023-04-01T09:20:46;1.3;;;0.3;;
27357;SDS011;14831;50.474;7.616;2023-04-01T09:25:48;1.0;;;0.3;;
27357;SDS011;14831;50.474;7.616;2023-04-01T09:30:53;1.0;;;0.3;;
27357;SDS011;14831;50.474;7.616;2023-04-01T09:35:39;1.0;;;0.3;;
27357;SDS011;14831;50.474;7.616;2023-04-01T09:40:46;1.0;;;0.3;;
27357;SDS011;14831;50.474;7.616;2023-04-01T09:45:48;1.0;;;0.3;;
27357;SDS011;14831;50.474;7.616;2023-04-01T09:50:42;1.0;;;0.3;;
27357;SDS011;14831;50.474;7.616;2023-04-01T09:55:58;0.4;;;0.4;;
27357;SDS011;14831;50.474;7.616;2023-04-01T10:00:52;0.4;;;0.4;;
27357;SDS011;14831;50.474;7.616;2023-04-01T10:05:56;0.4;;;0.4;;
27357;SDS011;14831;50.474;7.616;2023-04-01T10:10:51;0.4;;;0.4;;
27357;SDS011;14831;50.474;7.616;2023-04-01T10:15:50;0.4;;;0.4;;
27357;SDS011;14831;50.474;7.616;2023-04-01T10:20:46;0.4;;;0.4;;
27357;SDS011;14831;50.474;7.616;2023-04-01T10:30:50;0.9;;;0.3;;
27357;SDS011;14831;50.474;7.616;2023-04-01T10:35:57;0.9;;;0.3;;
27357;SDS011;14831;50.474;7.616;2023-04-01T10:40:48;0.9;;;0.3;;
27357;SDS011;14831;50.474;7.616;2023-04-01T10:48:08;0.9;;;0.3;;
27357;SDS011;14831;50.474;7.616;2023-04-01T10:50:54;0.9;;;0.3;;
27357;SDS011;14831;50.474;7.616;2023-04-01T10:55:50;0.3;;;0.3;;
27357;SDS011;14831;50.474;7.616;2023-04-01T11:00:55;0.3;;;0.3;;
27357;SDS011;14831;50.474;7.616;2023-04-01T11:06:06;0.3;;;0.3;;
27357;SDS011;14831;50.474;7.616;2023-04-01T11:10:57;0.3;;;0.3;;
27357;SDS011;14831;50.474;7.616;2023-04-01T11:16:52;0.3;;;0.3;;
27357;SDS011;14831;50.474;7.616;2023-04-01T11:20:45;0.3;;;0.3;;
27357;SDS011;14831;50.474;7.616;2023-04-01T11:25:48;0.4;;;0.4;;
27357;SDS011;14831;50.474;7.616;2023-04-01T11:30:49;0.4;;;0.4;;
27357;SDS011;14831;50.474;7.616;2023-04-01T11:35:55;0.4;;;0.4;;
27357;SDS011;14831;50.474;7.616;2023-04-01T11:40:38;0.4;;;0.4;;
27357;SDS011;14831;50.474;7.616;2023-04-01T11:45:37;0.4;;;0.4;;
27357;SDS011;14831;50.474;7.616;2023-04-01T11:50:49;0.4;;;0.4;;
27357;SDS011;14831;50.474;7.616;2023-04-01T11:55:45;1.5;;;0.4;;
27357;SDS011;14831;50.474;7.616;2023-04-01T12:00:48;1.5;;;0.4;;
27357;SDS011;14831;50.474;7.616;2023-04-01T12:05:42;1.5;;;0.4;;
27357;SDS011;14831;50.474;7.616;2023-04-01T12:10:39;1.5;;;0.4;;
27357;SDS011;14831;50.474;7.616;2023-04-01T12:15:51;1.5;;;0.4;;
27357;SDS011;14831;50.474;7.616;2023-04-01T12:20:44;1.5;;;0.4;;
27357;SDS011;14831;50.474;7.616;2023-04-01T12:25:49;1.8;;;0.4;;
27357;SDS011;14831;50.474;7.616;2023-04-01T12:30:42;1.8;;;0.4;;
27357;SDS011;14831;50.474;7.616;2023-04-01T12:35:47;1.8;;;0.4;;
27357;SDS011;14831;50.474;7.616;2023-04-01T12:40:46;1.8;;;0.4;;
27357;SDS011;14831;50.474;7.616;2023-04-01T12:45:41;1.8;;;0.4;;
27357;SDS011;14831;50.474;7.616;2023-04-01T12:50:50;1.8;;;0.4;;
27357;SDS011;14831;50.474;7.616;2023-04-01T12:55:38;0.9;;;0.8;;
27357;SDS011;14831;50.474;7.616;2023-04-01T13:00:48;0.9;;;0.8;;
27357;SDS011;14831;50.474;7.616;2023-04-01T13:05:52;0.9;;;0.8;;
27357;SDS011;14831;50.474;7.616;2023-04-01T13:10:44;0.9;;;0.8;;
27357;SDS011;14831;50.474;7.616;2023-04-01T13:15:40;0.9;;;0.8;;
27357;SDS011;14831;50.474;7.616;2023-04-01T13:20:44;0.9;;;0.8;;
27357;SDS011;14831;50.474;7.616;2023-04-01T13:25:39;1.0;;;0.8;;
27357;SDS011;14831;50.474;7.616;2023-04-01T13:30:40;1.0;;;0.8;;
27357;SDS011;14831;50.474;7.616;2023-04-01T13:35:42;1.0;;;0.8;;
27357;SDS011;14831;50.474;7.616;2023-04-01T13:40:41;1.0;;;0.8;;
27357;SDS011;14831;50.474;7.616;2023-04-01T13:45:46;1.0;;;0.8;;
27357;SDS011;14831;50.474;7.616;2023-04-01T13:50:53;1.0;;;0.8;;
27357;SDS011;14831;50.474;7.616;2023-04-01T13:55:41;2.2;;;2.0;;
27357;SDS011;14831;50.474;7.616;2023-04-01T14:00:45;2.2;;;2.0;;
27357;SDS011;14831;50.474;7.616;2023-04-01T14:05:44;2.2;;;2.0;;
27357;SDS011;14831;50.474;7.616;2023-04-01T14:10:39;2.2;;;2.0;;
27357;SDS011;14831;50.474;7.616;2023-04-01T14:15:57;2.2;;;2.0;;
27357;SDS011;14831;50.474;7.616;2023-04-01T14:20:39;2.2;;;2.0;;
27357;SDS011;14831;50.474;7.616;2023-04-01T14:25:45;2.4;;;2.2;;
27357;SDS011;14831;50.474;7.616;2023-04-01T14:30:43;2.4;;;2.2;;
27357;SDS011;14831;50.474;7.616;2023-04-01T14:35:38;2.4;;;2.2;;
27357;SDS011;14831;50.474;7.616;2023-04-01T14:40:49;2.4;;;2.2;;
27357;SDS011;14831;50.474;7.616;2023-04-01T14:45:49;2.4;;;2.2;;
27357;SDS011;14831;50.474;7.616;2023-04-01T14:50:41;2.4;;;2.2;;
27357;SDS011;14831;50.474;7.616;2023-04-01T14:55:48;2.2;;;2.0;;
27357;SDS011;14831;50.474;7.616;2023-04-01T15:00:48;2.2;;;2.0;;
27357;SDS011;14831;50.474;7.616;2023-04-01T15:05:43;2.2;;;2.0;;
27357;SDS011;14831;50.474;7.616;2023-04-01T15:11:51;2.2;;;2.0;;
27357;SDS011;14831;50.474;7.616;2023-04-01T15:15:47;2.2;;;2.0;;
27357;SDS011;14831;50.474;7.616;2023-04-01T15:20:47;2.2;;;2.0;;
27357;SDS011;14831;50.474;7.616;2023-04-01T15:25:47;2.4;;;2.1;;
27357;SDS011;14831;50.474;7.616;2023-04-01T15:30:39;2.4;;;2.1;;
27357;SDS011;14831;50.474;7.616;2023-04-01T15:35:42;2.4;;;2.1;;
27357;SDS011;14831;50.474;7.616;2023-04-01T15:40:42;2.4;;;2.1;;
27357;SDS011;14831;50.474;7.616;2023-04-01T15:45:43;2.4;;;2.1;;
27357;SDS011;14831;50.474;7.616;2023-04-01T15:50:46;2.4;;;2.1;;
27357;SDS011;14831;50.474;7.616;2023-04-01T15:55:38;2.5;;;2.1;;
27357;SDS011;14831;50.474;7.616;2023-04-01T16:00:45;2.5;;;2.1;;
27357;SDS011;14831;50.474;7.616;2023-04-01T16:05:44;2.5;;;2.1;;
27357;SDS011;14831;50.474;7.616;2023-04-01T16:10:51;2.5;;;2.1;;
27357;SDS011;14831;50.474;7.616;2023-04-01T16:15:41;2.5;;;2.1;;
27357;SDS011;14831;50.474;7.616;2023-04-01T16:20:44;2.5;;;2.1;;
27357;SDS011;14831;50.474;7.616;2023-04-01T16:25:39;2.1;;;1.9;;
27357;SDS011;14831;50.474;7.616;2023-04-01T16:30:37;2.1;;;1.9;;
27357;SDS011;14831;50.474;7.616;2023-04-01T16:35:42;2.1;;;1.9;;
27357;SDS011;14831;50.474;7.616;2023-04-01T16:40:42;2.1;;;1.9;;
27357;SDS011;14831;50.474;7.616;2023-04-01T16:45:39;2.1;;;1.9;;
27357;SDS011;14831;50.474;7.616;2023-04-01T16:50:44;2.1;;;1.9;;
27357;SDS011;14831;50.474;7.616;2023-04-01T16:55:43;2.0;;;1.9;;
27357;SDS011;14831;50.474;7.616;2023-04-01T17:00:39;2.0;;;1.9;;
27357;SDS011;14831;50.474;7.616;2023-04-01T17:05:42;2.0;;;1.9;;
27357;SDS011;14831;50.474;7.616;2023-04-01T17:10:44;2.0;;;1.9;;
27357;SDS011;14831;50.474;7.616;2023-04-01T17:15:42;2.0;;;1.9;;
27357;SDS011;14831;50.474;7.616;2023-04-01T17:20:41;2.0;;;1.9;;
27357;SDS011;14831;50.474;7.616;2023-04-01T17:25:48;1.6;;;1.5;;
27357;SDS011;14831;50.474;7.616;2023-04-01T17:30:38;1.6;;;1.5;;
27357;SDS011;14831;50.474;7.616;2023-04-01T17:35:38;1.6;;;1.5;;
27357;SDS011;14831;50.474;7.616;2023-04-01T17:40:44;1.6;;;1.5;;
27357;SDS011;14831;50.474;7.616;2023-04-01T17:45:42;1.6;;;1.5;;
27357;SDS011;14831;50.474;7.616;2023-04-01T17:50:49;1.6;;;1.5;;
27357;SDS011;14831;50.474;7.616;2023-04-01T17:55:49;1.7;;;1.6;;
27357;SDS011;14831;50.474;7.616;2023-04-01T18:00:39;1.7;;;1.6;;
27357;SDS011;14831;50.474;7.616;2023-04-01T18:05:47;1.7;;;1.6;;
27357;SDS011;14831;50.474;7.616;2023-04-01T18:10:40;1.7;;;1.6;;
27357;SDS011;14831;50.474;7.616;2023-04-01T18:15:38;1.7;;;1.6;;
27357;SDS011;14831;50.474;7.616;2023-04-01T18:20:43;1.7;;;1.6;;
27357;SDS011;14831;50.474;7.616;2023-04-01T18:25:38;1.5;;;1.4;;
27357;SDS011;14831;50.474;7.616;2023-04-01T18:30:36;1.5;;;1.4;;
27357;SDS011;14831;50.474;7.616;2023-04-01T18:35:47;1.5;;;1.4;;
27357;SDS011;14831;50.474;7.616;2023-04-01T18:40:39;1.5;;;1.4;;
27357;SDS011;14831;50.474;7.616;2023-04-01T18:45:38;1.5;;;1.4;;
27357;SDS011;14831;50.474;7.616;2023-04-01T18:50:38;1.5;;;1.4;;
27357;SDS011;14831;50.474;7.616;2023-04-01T18:55:39;1.4;;;1.3;;
27357;SDS011;14831;50.474;7.616;2023-04-01T19:00:39;1.4;;;1.3;;
27357;SDS011;14831;50.474;7.616;2023-04-01T19:05:38;1.4;;;1.3;;
27357;SDS011;14831;50.474;7.616;2023-04-01T19:10:40;1.4;;;1.3;;
27357;SDS011;14831;50.474;7.616;2023-04-01T19:15:41;1.4;;;1.3;;
27357;SDS011;14831;50.474;7.616;2023-04-01T19:20:38;1.4;;;1.3;;
27357;SDS011;14831;50.474;7.616;2023-04-01T19:25:38;1.2;;;1.1;;
27357;SDS011;14831;50.474;7.616;2023-04-01T19:30:44;1.2;;;1.1;;
27357;SDS011;14831;50.474;7.616;2023-04-01T19:35:40;1.2;;;1.1;;
27357;SDS011;14831;50.474;7.616;2023-04-01T19:40:43;1.2;;;1.1;;
27357;SDS011;14831;50.474;7.616;2023-04-01T19:45:41;1.2;;;1.1;;
27357;SDS011;14831;50.474;7.616;2023-04-01T19:50:40;1.2;;;1.1;;
27357;SDS011;14831;50.474;7.616;2023-04-01T19:55:39;0.9;;;0.9;;
27357;SDS011;14831;50.474;7.616;2023-04-01T20:00:39;0.9;;;0.9;;
27357;SDS011;14831;50.474;7.616;2023-04-01T20:05:46;0.9;;;0.9;;
27357;SDS011;14831;50.474;7.616;2023-04-01T20:10:39;0.9;;;0.9;;
27357;SDS011;14831;50.474;7.616;2023-04-01T20:15:38;0.9;;;0.9;;
27357;SDS011;14831;50.474;7.616;2023-04-01T20:20:36;0.9;;;0.9;;
27357;SDS011;14831;50.474;7.616;2023-04-01T20:25:40;1.2;;;1.1;;
27357;SDS011;14831;50.474;7.616;2023-04-01T20:30:52;1.2;;;1.1;;
27357;SDS011;14831;50.474;7.616;2023-04-01T20:35:39;1.2;;;1.1;;
27357;SDS011;14831;50.474;7.616;2023-04-01T20:40:38;1.2;;;1.1;;
27357;SDS011;14831;50.474;7.616;2023-04-01T20:45:42;1.2;;;1.1;;
27357;SDS011;14831;50.474;7.616;2023-04-01T20:50:42;1.2;;;1.1;;
27357;SDS011;14831;50.474;7.616;2023-04-01T20:55:57;0.8;;;0.8;;
27357;SDS011;14831;50.474;7.616;2023-04-01T21:00:41;0.8;;;0.8;;
27357;SDS011;14831;50.474;7.616;2023-04-01T21:05:49;0.8;;;0.8;;
27357;SDS011;14831;50.474;7.616;2023-04-01T21:10:41;0.8;;;0.8;;
27357;SDS011;14831;50.474;7.616;2023-04-01T21:15:46;0.8;;;0.8;;
27357;SDS011;14831;50.474;7.616;2023-04-01T21:20:48;0.8;;;0.8;;
27357;SDS011;14831;50.474;7.616;2023-04-01T21:25:45;0.7;;;0.7;;
27357;SDS011;14831;50.474;7.616;2023-04-01T21:30:44;0.7;;;0.7;;
27357;SDS011;14831;50.474;7.616;2023-04-01T21:35:41;0.7;;;0.7;;
27357;SDS011;14831;50.474;7.616;2023-04-01T21:40:48;0.7;;;0.7;;
27357;SDS011;14831;50.474;7.616;2023-04-01T21:45:47;0.7;;;0.7;;
27357;SDS011;14831;50.474;7.616;2023-04-01T21:50:43;0.7;;;0.7;;
27357;SDS011;14831;50.474;7.616;2023-04-01T21:55:55;0.7;;;0.7;;
27357;SDS011;14831;50.474;7.616;2023-04-01T22:00:38;0.7;;;0.7;;
27357;SDS011;14831;50.474;7.616;2023-04-01T22:05:39;0.7;;;0.7;;
27357;SDS011;14831;50.474;7.616;2023-04-01T22:10:40;0.7;;;0.7;;
27357;SDS011;14831;50.474;7.616;2023-04-01T22:15:52;0.7;;;0.7;;
27357;SDS011;14831;50.474;7.616;2023-04-01T22:20:38;0.7;;;0.7;;
27357;SDS011;14831;50.474;7.616;2023-04-01T22:25:40;0.9;;;0.8;;
27357;SDS011;14831;50.474;7.616;2023-04-01T22:30:40;0.9;;;0.8;;
27357;SDS011;14831;50.474;7.616;2023-04-01T22:35:40;0.9;;;0.8;;
27357;SDS011;14831;50.474;7.616;2023-04-01T22:40:44;0.9;;;0.8;;
27357;SDS011;14831;50.474;7.616;2023-04-01T22:45:54;0.9;;;0.8;;
27357;SDS011;14831;50.474;7.616;2023-04-01T22:50:39;0.9;;;0.8;;
27357;SDS011;14831;50.474;7.616;2023-04-01T22:55:38;0.7;;;0.7;;
27357;SDS011;14831;50.474;7.616;2023-04-01T23:00:39;0.7;;;0.7;;
27357;SDS011;14831;50.474;7.616;2023-04-01T23:05:40;0.7;;;0.7;;
27357;SDS011;14831;50.474;7.616;2023-04-01T23:10:41;0.7;;;0.7;;
27357;SDS011;14831;50.474;7.616;2023-04-01T23:15:36;0.7;;;0.7;;
27357;SDS011;14831;50.474;7.616;2023-04-01T23:20:50;0.7;;;0.7;;
27357;SDS011;14831;50.474;7.616;2023-04-01T23:25:43;0.7;;;0.7;;
27357;SDS011;14831;50.474;7.616;2023-04-01T23:30:52;0.7;;;0.7;;
27357;SDS011;14831;50.474;7.616;2023-04-01T23:35:46;0.7;;;0.7;;
27357;SDS011;14831;50.474;7.616;2023-04-01T23:40:35;0.7;;;0.7;;
27357;SDS011;14831;50.474;7.616;2023-04-01T23:45:35;0.7;;;0.7;;
27357;SDS011;14831;50.474;7.616;2023-04-01T23:50:36;0.7;;;0.7;;
27357;SDS011;14831;50.474;7.616;2023-04-01T23:55:41;0.6;;;0.6;;
